sensor_id;sensor_type;location;lat;lon;timestamp;P1;durP1;ratioP1;P2;durP2;ratioP2
7203;SDS011;3643;52.460;13.322;2023-10-31T00:02:02;6.53;;;4.50;;
7203;SDS011;3643;52.460;13.322;2023-10-31T00:04:30;9.40;;;4.63;;
7203;SDS011;3643;52.460;13.322;2023-10-31T00:06:58;8.70;;;4.63;;
7203;SDS011;3643;52.460;13.322;2023-10-31T00:09:26;5.10;;;4.07;;
7203;SDS011;3643;52.460;13.322;2023-10-31T00:11:54;7.97;;;3.70;;
7203;SDS011;3643;52.460;13.322;2023-10-31T00:14:22;5.40;;;4.07;;
7203;SDS011;3643;52.460;13.322;2023-10-31T00:16:58;8.07;;;4.17;;
7203;SDS011;3643;52.460;13.322;2023-10-31T00:19:26;6.50;;;3.67;;
7203;SDS011;3643;52.460;13.322;2023-10-31T00:21:54;5.93;;;3.73;;
7203;SDS011;3643;52.460;13.322;2023-10-31T00:24:22;8.30;;;4.77;;
7203;SDS011;3643;52.460;13.322;2023-10-31T00:26:50;6.63;;;4.20;;
7203;SDS011;3643;52.460;13.322;2023-10-31T00:29:18;6.10;;;4.00;;
7203;SDS011;3643;52.460;13.322;2023-10-31T00:31:47;7.13;;;4.33;;
7203;SDS011;3643;52.460;13.322;2023-10-31T00:34:16;5.40;;;4.03;;
7203;SDS011;3643;52.460;13.322;2023-10-31T00:36:44;4.87;;;3.90;;
7203;SDS011;3643;52.460;13.322;2023-10-31T00:39:12;5.67;;;4.13;;
7203;SDS011;3643;52.460;13.322;2023-10-31T00:41:43;5.87;;;4.37;;
7203;SDS011;3643;52.460;13.322;2023-10-31T00:44:12;5.40;;;4.43;;
7203;SDS011;3643;52.460;13.322;2023-10-31T00:46:40;6.13;;;4.87;;
7203;SDS011;3643;52.460;13.322;2023-10-31T00:49:09;6.13;;;4.37;;
7203;SDS011;3643;52.460;13.322;2023-10-31T00:51:39;6.20;;;4.40;;
7203;SDS011;3643;52.460;13.322;2023-10-31T00:54:07;9.23;;;4.50;;
7203;SDS011;3643;52.460;13.322;2023-10-31T00:56:35;6.67;;;4.40;;
7203;SDS011;3643;52.460;13.322;2023-10-31T00:59:03;7.00;;;4.50;;
7203;SDS011;3643;52.460;13.322;2023-10-31T01:01:31;8.37;;;4.57;;
7203;SDS011;3643;52.460;13.322;2023-10-31T01:03:59;6.20;;;4.20;;
7203;SDS011;3643;52.460;13.322;2023-10-31T01:06:27;6.17;;;3.90;;
7203;SDS011;3643;52.460;13.322;2023-10-31T01:08:57;9.27;;;4.63;;
7203;SDS011;3643;52.460;13.322;2023-10-31T01:11:25;7.13;;;4.10;;
7203;SDS011;3643;52.460;13.322;2023-10-31T01:13:53;5.57;;;3.97;;
7203;SDS011;3643;52.460;13.322;2023-10-31T01:16:21;6.63;;;4.47;;
7203;SDS011;3643;52.460;13.322;2023-10-31T01:18:49;5.23;;;4.30;;
7203;SDS011;3643;52.460;13.322;2023-10-31T01:21:17;5.53;;;4.43;;
7203;SDS011;3643;52.460;13.322;2023-10-31T01:23:45;7.30;;;4.63;;
7203;SDS011;3643;52.460;13.322;2023-10-31T01:26:14;6.70;;;4.77;;
7203;SDS011;3643;52.460;13.322;2023-10-31T01:28:42;6.77;;;4.27;;
7203;SDS011;3643;52.460;13.322;2023-10-31T01:31:10;8.73;;;4.53;;
7203;SDS011;3643;52.460;13.322;2023-10-31T01:33:38;5.43;;;4.20;;
7203;SDS011;3643;52.460;13.322;2023-10-31T01:36:06;8.97;;;4.70;;
7203;SDS011;3643;52.460;13.322;2023-10-31T01:38:36;8.20;;;5.77;;
7203;SDS011;3643;52.460;13.322;2023-10-31T01:41:04;9.50;;;5.63;;
7203;SDS011;3643;52.460;13.322;2023-10-31T01:43:34;5.60;;;4.80;;
7203;SDS011;3643;52.460;13.322;2023-10-31T01:46:03;5.77;;;4.40;;
7203;SDS011;3643;52.460;13.322;2023-10-31T01:48:32;5.90;;;4.50;;
7203;SDS011;3643;52.460;13.322;2023-10-31T01:51:01;12.30;;;5.60;;
7203;SDS011;3643;52.460;13.322;2023-10-31T01:53:31;9.43;;;5.83;;
7203;SDS011;3643;52.460;13.322;2023-10-31T01:56:01;6.70;;;4.70;;
7203;SDS011;3643;52.460;13.322;2023-10-31T01:58:30;7.37;;;4.93;;
7203;SDS011;3643;52.460;13.322;2023-10-31T02:01:03;6.97;;;4.60;;
7203;SDS011;3643;52.460;13.322;2023-10-31T02:03:32;6.53;;;4.53;;
7203;SDS011;3643;52.460;13.322;2023-10-31T02:05:59;9.57;;;5.37;;
7203;SDS011;3643;52.460;13.322;2023-10-31T02:08:27;8.57;;;5.37;;
7203;SDS011;3643;52.460;13.322;2023-10-31T02:10:56;8.47;;;5.13;;
7203;SDS011;3643;52.460;13.322;2023-10-31T02:13:24;9.73;;;6.30;;
7203;SDS011;3643;52.460;13.322;2023-10-31T02:15:52;9.50;;;6.30;;
7203;SDS011;3643;52.460;13.322;2023-10-31T02:18:22;11.77;;;6.13;;
7203;SDS011;3643;52.460;13.322;2023-10-31T02:20:50;12.87;;;6.57;;
7203;SDS011;3643;52.460;13.322;2023-10-31T02:23:19;13.13;;;6.57;;
7203;SDS011;3643;52.460;13.322;2023-10-31T02:25:47;10.90;;;5.93;;
7203;SDS011;3643;52.460;13.322;2023-10-31T02:28:15;10.80;;;6.53;;
7203;SDS011;3643;52.460;13.322;2023-10-31T02:30:43;9.13;;;6.27;;
7203;SDS011;3643;52.460;13.322;2023-10-31T02:33:11;10.30;;;6.37;;
7203;SDS011;3643;52.460;13.322;2023-10-31T02:35:39;8.60;;;6.10;;
7203;SDS011;3643;52.460;13.322;2023-10-31T02:38:07;12.17;;;7.13;;
7203;SDS011;3643;52.460;13.322;2023-10-31T02:40:36;12.47;;;6.90;;
7203;SDS011;3643;52.460;13.322;2023-10-31T02:43:04;9.53;;;6.37;;
7203;SDS011;3643;52.460;13.322;2023-10-31T02:45:32;10.23;;;6.50;;
7203;SDS011;3643;52.460;13.322;2023-10-31T02:48:01;12.97;;;7.80;;
7203;SDS011;3643;52.460;13.322;2023-10-31T02:50:29;9.40;;;6.83;;
7203;SDS011;3643;52.460;13.322;2023-10-31T02:52:57;13.37;;;7.53;;
7203;SDS011;3643;52.460;13.322;2023-10-31T02:55:25;12.37;;;6.60;;
7203;SDS011;3643;52.460;13.322;2023-10-31T02:57:54;10.07;;;6.03;;
7203;SDS011;3643;52.460;13.322;2023-10-31T03:00:22;7.77;;;6.17;;
7203;SDS011;3643;52.460;13.322;2023-10-31T03:02:50;9.47;;;6.50;;
7203;SDS011;3643;52.460;13.322;2023-10-31T03:05:18;9.90;;;5.43;;
7203;SDS011;3643;52.460;13.322;2023-10-31T03:07:46;7.40;;;5.97;;
7203;SDS011;3643;52.460;13.322;2023-10-31T03:10:14;10.60;;;6.43;;
7203;SDS011;3643;52.460;13.322;2023-10-31T03:12:43;9.20;;;5.80;;
7203;SDS011;3643;52.460;13.322;2023-10-31T03:15:12;7.57;;;5.90;;
7203;SDS011;3643;52.460;13.322;2023-10-31T03:17:40;10.53;;;7.47;;
7203;SDS011;3643;52.460;13.322;2023-10-31T03:20:09;10.30;;;7.63;;
7203;SDS011;3643;52.460;13.322;2023-10-31T03:22:37;16.27;;;7.63;;
7203;SDS011;3643;52.460;13.322;2023-10-31T03:25:06;12.83;;;8.10;;
7203;SDS011;3643;52.460;13.322;2023-10-31T03:27:34;13.50;;;7.50;;
7203;SDS011;3643;52.460;13.322;2023-10-31T03:30:03;12.00;;;7.60;;
7203;SDS011;3643;52.460;13.322;2023-10-31T03:32:32;9.83;;;6.70;;
7203;SDS011;3643;52.460;13.322;2023-10-31T03:35:00;9.00;;;6.60;;
7203;SDS011;3643;52.460;13.322;2023-10-31T03:37:28;11.13;;;6.10;;
7203;SDS011;3643;52.460;13.322;2023-10-31T03:39:56;9.13;;;6.63;;
7203;SDS011;3643;52.460;13.322;2023-10-31T03:42:24;12.37;;;7.83;;
7203;SDS011;3643;52.460;13.322;2023-10-31T03:44:52;12.80;;;8.10;;
7203;SDS011;3643;52.460;13.322;2023-10-31T03:47:20;10.43;;;7.57;;
7203;SDS011;3643;52.460;13.322;2023-10-31T03:49:49;14.27;;;8.27;;
7203;SDS011;3643;52.460;13.322;2023-10-31T03:52:18;14.60;;;8.30;;
7203;SDS011;3643;52.460;13.322;2023-10-31T03:54:46;23.10;;;9.60;;
7203;SDS011;3643;52.460;13.322;2023-10-31T03:57:14;16.53;;;9.73;;
7203;SDS011;3643;52.460;13.322;2023-10-31T03:59:42;17.27;;;8.83;;
7203;SDS011;3643;52.460;13.322;2023-10-31T04:02:10;13.30;;;7.43;;
7203;SDS011;3643;52.460;13.322;2023-10-31T04:04:38;15.20;;;9.77;;
7203;SDS011;3643;52.460;13.322;2023-10-31T04:07:07;11.27;;;7.97;;
7203;SDS011;3643;52.460;13.322;2023-10-31T04:09:35;9.50;;;6.97;;
7203;SDS011;3643;52.460;13.322;2023-10-31T04:12:03;18.30;;;9.33;;
7203;SDS011;3643;52.460;13.322;2023-10-31T04:14:32;11.80;;;7.80;;
7203;SDS011;3643;52.460;13.322;2023-10-31T04:17:00;11.00;;;7.33;;
7203;SDS011;3643;52.460;13.322;2023-10-31T04:19:28;15.40;;;8.87;;
7203;SDS011;3643;52.460;13.322;2023-10-31T04:21:56;11.50;;;8.23;;
7203;SDS011;3643;52.460;13.322;2023-10-31T04:24:25;17.23;;;10.53;;
7203;SDS011;3643;52.460;13.322;2023-10-31T04:26:53;19.40;;;10.33;;
7203;SDS011;3643;52.460;13.322;2023-10-31T04:29:21;14.40;;;8.40;;
7203;SDS011;3643;52.460;13.322;2023-10-31T04:31:49;12.07;;;8.90;;
7203;SDS011;3643;52.460;13.322;2023-10-31T04:34:17;11.30;;;8.07;;
7203;SDS011;3643;52.460;13.322;2023-10-31T04:36:45;14.03;;;7.97;;
7203;SDS011;3643;52.460;13.322;2023-10-31T04:39:13;18.37;;;9.87;;
7203;SDS011;3643;52.460;13.322;2023-10-31T04:41:43;15.97;;;10.33;;
7203;SDS011;3643;52.460;13.322;2023-10-31T04:44:11;15.63;;;9.60;;
7203;SDS011;3643;52.460;13.322;2023-10-31T04:46:38;17.67;;;11.53;;
7203;SDS011;3643;52.460;13.322;2023-10-31T04:49:07;16.13;;;10.53;;
7203;SDS011;3643;52.460;13.322;2023-10-31T04:51:35;19.40;;;11.53;;
7203;SDS011;3643;52.460;13.322;2023-10-31T04:54:03;21.27;;;11.87;;
7203;SDS011;3643;52.460;13.322;2023-10-31T04:56:32;24.07;;;12.90;;
7203;SDS011;3643;52.460;13.322;2023-10-31T04:59:02;22.03;;;11.37;;
7203;SDS011;3643;52.460;13.322;2023-10-31T05:01:35;26.17;;;12.97;;
7203;SDS011;3643;52.460;13.322;2023-10-31T05:04:03;26.27;;;14.00;;
7203;SDS011;3643;52.460;13.322;2023-10-31T05:06:38;20.03;;;11.13;;
7203;SDS011;3643;52.460;13.322;2023-10-31T05:09:07;14.67;;;9.90;;
7203;SDS011;3643;52.460;13.322;2023-10-31T05:11:37;20.60;;;11.10;;
7203;SDS011;3643;52.460;13.322;2023-10-31T05:14:08;17.23;;;10.47;;
7203;SDS011;3643;52.460;13.322;2023-10-31T05:16:40;29.23;;;14.07;;
7203;SDS011;3643;52.460;13.322;2023-10-31T05:19:09;17.73;;;11.13;;
7203;SDS011;3643;52.460;13.322;2023-10-31T05:21:37;18.97;;;11.17;;
7203;SDS011;3643;52.460;13.322;2023-10-31T05:24:06;27.43;;;13.87;;
7203;SDS011;3643;52.460;13.322;2023-10-31T05:26:35;29.70;;;13.80;;
7203;SDS011;3643;52.460;13.322;2023-10-31T05:29:03;21.77;;;12.07;;
7203;SDS011;3643;52.460;13.322;2023-10-31T05:31:32;20.73;;;11.67;;
7203;SDS011;3643;52.460;13.322;2023-10-31T05:34:00;24.17;;;13.20;;
7203;SDS011;3643;52.460;13.322;2023-10-31T05:36:29;26.30;;;13.37;;
7203;SDS011;3643;52.460;13.322;2023-10-31T05:38:58;20.57;;;11.07;;
7203;SDS011;3643;52.460;13.322;2023-10-31T05:41:26;26.43;;;13.47;;
7203;SDS011;3643;52.460;13.322;2023-10-31T05:43:54;19.70;;;11.27;;
7203;SDS011;3643;52.460;13.322;2023-10-31T05:46:22;22.17;;;11.60;;
7203;SDS011;3643;52.460;13.322;2023-10-31T05:48:51;18.97;;;10.40;;
7203;SDS011;3643;52.460;13.322;2023-10-31T05:51:19;15.73;;;9.13;;
7203;SDS011;3643;52.460;13.322;2023-10-31T05:53:48;26.13;;;12.20;;
7203;SDS011;3643;52.460;13.322;2023-10-31T05:56:16;13.80;;;9.30;;
7203;SDS011;3643;52.460;13.322;2023-10-31T05:58:44;13.90;;;8.57;;
7203;SDS011;3643;52.460;13.322;2023-10-31T06:01:13;17.03;;;10.67;;
7203;SDS011;3643;52.460;13.322;2023-10-31T06:03:41;20.33;;;10.73;;
7203;SDS011;3643;52.460;13.322;2023-10-31T06:06:12;16.43;;;9.87;;
7203;SDS011;3643;52.460;13.322;2023-10-31T06:08:40;12.93;;;7.87;;
7203;SDS011;3643;52.460;13.322;2023-10-31T06:11:09;18.93;;;10.23;;
7203;SDS011;3643;52.460;13.322;2023-10-31T06:13:39;13.23;;;8.77;;
7203;SDS011;3643;52.460;13.322;2023-10-31T06:16:07;17.50;;;10.07;;
7203;SDS011;3643;52.460;13.322;2023-10-31T06:18:35;19.03;;;10.03;;
7203;SDS011;3643;52.460;13.322;2023-10-31T06:21:05;17.97;;;9.97;;
7203;SDS011;3643;52.460;13.322;2023-10-31T06:23:35;21.30;;;10.57;;
7203;SDS011;3643;52.460;13.322;2023-10-31T06:26:03;20.10;;;10.33;;
7203;SDS011;3643;52.460;13.322;2023-10-31T06:28:32;16.57;;;9.67;;
7203;SDS011;3643;52.460;13.322;2023-10-31T06:31:08;19.77;;;10.70;;
7203;SDS011;3643;52.460;13.322;2023-10-31T06:33:36;13.57;;;9.10;;
7203;SDS011;3643;52.460;13.322;2023-10-31T06:36:05;16.37;;;9.47;;
7203;SDS011;3643;52.460;13.322;2023-10-31T06:38:35;13.13;;;7.20;;
7203;SDS011;3643;52.460;13.322;2023-10-31T06:41:03;16.67;;;8.93;;
7203;SDS011;3643;52.460;13.322;2023-10-31T06:43:31;14.60;;;8.63;;
7203;SDS011;3643;52.460;13.322;2023-10-31T06:46:00;18.77;;;9.13;;
7203;SDS011;3643;52.460;13.322;2023-10-31T06:48:31;11.50;;;7.33;;
7203;SDS011;3643;52.460;13.322;2023-10-31T06:50:59;15.63;;;8.70;;
7203;SDS011;3643;52.460;13.322;2023-10-31T06:53:27;12.30;;;7.73;;
7203;SDS011;3643;52.460;13.322;2023-10-31T06:55:56;14.83;;;8.93;;
7203;SDS011;3643;52.460;13.322;2023-10-31T06:58:24;11.93;;;7.47;;
7203;SDS011;3643;52.460;13.322;2023-10-31T07:00:52;12.03;;;7.47;;
7203;SDS011;3643;52.460;13.322;2023-10-31T07:03:21;13.13;;;7.07;;
7203;SDS011;3643;52.460;13.322;2023-10-31T07:05:49;12.73;;;6.77;;
7203;SDS011;3643;52.460;13.322;2023-10-31T07:08:17;13.27;;;7.60;;
7203;SDS011;3643;52.460;13.322;2023-10-31T07:10:45;14.83;;;7.10;;
7203;SDS011;3643;52.460;13.322;2023-10-31T07:13:15;11.53;;;6.80;;
7203;SDS011;3643;52.460;13.322;2023-10-31T07:15:44;9.37;;;5.80;;
7203;SDS011;3643;52.460;13.322;2023-10-31T07:18:14;14.30;;;6.73;;
7203;SDS011;3643;52.460;13.322;2023-10-31T07:20:42;9.97;;;5.70;;
7203;SDS011;3643;52.460;13.322;2023-10-31T07:23:10;11.03;;;5.70;;
7203;SDS011;3643;52.460;13.322;2023-10-31T07:25:38;9.77;;;5.33;;
7203;SDS011;3643;52.460;13.322;2023-10-31T07:28:06;10.37;;;5.40;;
7203;SDS011;3643;52.460;13.322;2023-10-31T07:30:35;9.87;;;5.60;;
7203;SDS011;3643;52.460;13.322;2023-10-31T07:33:03;6.77;;;4.73;;
7203;SDS011;3643;52.460;13.322;2023-10-31T07:35:32;6.93;;;4.97;;
7203;SDS011;3643;52.460;13.322;2023-10-31T07:38:00;5.40;;;3.80;;
7203;SDS011;3643;52.460;13.322;2023-10-31T07:40:28;7.00;;;4.40;;
7203;SDS011;3643;52.460;13.322;2023-10-31T07:42:56;6.07;;;4.13;;
7203;SDS011;3643;52.460;13.322;2023-10-31T07:45:24;7.03;;;3.83;;
7203;SDS011;3643;52.460;13.322;2023-10-31T07:47:53;6.33;;;4.47;;
7203;SDS011;3643;52.460;13.322;2023-10-31T07:50:21;6.57;;;5.60;;
7203;SDS011;3643;52.460;13.322;2023-10-31T07:52:49;6.40;;;4.70;;
7203;SDS011;3643;52.460;13.322;2023-10-31T07:55:17;7.07;;;5.27;;
7203;SDS011;3643;52.460;13.322;2023-10-31T07:57:45;6.13;;;4.37;;
7203;SDS011;3643;52.460;13.322;2023-10-31T08:00:14;4.70;;;4.10;;
7203;SDS011;3643;52.460;13.322;2023-10-31T08:02:42;8.57;;;4.97;;
7203;SDS011;3643;52.460;13.322;2023-10-31T08:05:11;9.07;;;6.53;;
7203;SDS011;3643;52.460;13.322;2023-10-31T08:07:40;7.10;;;5.77;;
7203;SDS011;3643;52.460;13.322;2023-10-31T08:10:08;9.50;;;6.30;;
7203;SDS011;3643;52.460;13.322;2023-10-31T08:12:36;9.43;;;6.80;;
7203;SDS011;3643;52.460;13.322;2023-10-31T08:15:05;11.67;;;9.23;;
7203;SDS011;3643;52.460;13.322;2023-10-31T08:17:33;19.60;;;15.27;;
7203;SDS011;3643;52.460;13.322;2023-10-31T08:20:02;8.30;;;5.80;;
7203;SDS011;3643;52.460;13.322;2023-10-31T08:22:32;9.07;;;4.90;;
7203;SDS011;3643;52.460;13.322;2023-10-31T08:25:00;3.80;;;3.40;;
7203;SDS011;3643;52.460;13.322;2023-10-31T08:27:28;3.30;;;3.00;;
7203;SDS011;3643;52.460;13.322;2023-10-31T08:29:56;6.37;;;5.17;;
7203;SDS011;3643;52.460;13.322;2023-10-31T08:32:24;4.67;;;3.23;;
7203;SDS011;3643;52.460;13.322;2023-10-31T08:34:52;3.30;;;2.17;;
7203;SDS011;3643;52.460;13.322;2023-10-31T08:37:22;2.93;;;2.47;;
7203;SDS011;3643;52.460;13.322;2023-10-31T08:39:51;3.80;;;2.57;;
7203;SDS011;3643;52.460;13.322;2023-10-31T08:42:19;3.93;;;2.03;;
7203;SDS011;3643;52.460;13.322;2023-10-31T08:44:47;1.50;;;1.40;;
7203;SDS011;3643;52.460;13.322;2023-10-31T08:47:15;2.63;;;2.43;;
7203;SDS011;3643;52.460;13.322;2023-10-31T08:49:44;2.83;;;2.30;;
7203;SDS011;3643;52.460;13.322;2023-10-31T08:52:12;3.90;;;1.60;;
7203;SDS011;3643;52.460;13.322;2023-10-31T08:54:40;3.07;;;1.70;;
7203;SDS011;3643;52.460;13.322;2023-10-31T08:57:10;1.80;;;1.70;;
7203;SDS011;3643;52.460;13.322;2023-10-31T08:59:38;1.43;;;1.20;;
7203;SDS011;3643;52.460;13.322;2023-10-31T09:02:07;1.47;;;1.20;;
7203;SDS011;3643;52.460;13.322;2023-10-31T09:04:35;1.43;;;1.33;;
7203;SDS011;3643;52.460;13.322;2023-10-31T09:07:03;2.20;;;1.20;;
7203;SDS011;3643;52.460;13.322;2023-10-31T09:09:31;1.20;;;1.20;;
7203;SDS011;3643;52.460;13.322;2023-10-31T09:11:59;1.70;;;1.20;;
7203;SDS011;3643;52.460;13.322;2023-10-31T09:14:28;1.33;;;1.27;;
7203;SDS011;3643;52.460;13.322;2023-10-31T09:16:57;1.63;;;1.10;;
7203;SDS011;3643;52.460;13.322;2023-10-31T09:19:25;2.17;;;2.07;;
7203;SDS011;3643;52.460;13.322;2023-10-31T09:21:53;4.73;;;3.20;;
7203;SDS011;3643;52.460;13.322;2023-10-31T09:24:22;2.23;;;2.03;;
7203;SDS011;3643;52.460;13.322;2023-10-31T09:26:50;1.23;;;1.20;;
7203;SDS011;3643;52.460;13.322;2023-10-31T09:29:18;2.60;;;2.40;;
7203;SDS011;3643;52.460;13.322;2023-10-31T09:31:56;1.57;;;1.47;;
7203;SDS011;3643;52.460;13.322;2023-10-31T09:34:25;2.00;;;1.50;;
7203;SDS011;3643;52.460;13.322;2023-10-31T09:36:53;2.20;;;1.40;;
7203;SDS011;3643;52.460;13.322;2023-10-31T09:41:59;5.27;;;1.80;;
7203;SDS011;3643;52.460;13.322;2023-10-31T09:44:27;4.23;;;2.13;;
7203;SDS011;3643;52.460;13.322;2023-10-31T09:46:56;1.90;;;1.80;;
7203;SDS011;3643;52.460;13.322;2023-10-31T09:49:27;1.87;;;1.77;;
7203;SDS011;3643;52.460;13.322;2023-10-31T09:51:56;1.90;;;1.80;;
7203;SDS011;3643;52.460;13.322;2023-10-31T09:54:25;1.83;;;1.73;;
7203;SDS011;3643;52.460;13.322;2023-10-31T09:56:54;3.17;;;1.60;;
7203;SDS011;3643;52.460;13.322;2023-10-31T09:59:22;1.97;;;1.50;;
7203;SDS011;3643;52.460;13.322;2023-10-31T10:01:50;4.67;;;1.70;;
7203;SDS011;3643;52.460;13.322;2023-10-31T10:04:20;3.70;;;1.63;;
7203;SDS011;3643;52.460;13.322;2023-10-31T10:06:49;1.70;;;1.60;;
7203;SDS011;3643;52.460;13.322;2023-10-31T10:09:18;1.50;;;1.40;;
7203;SDS011;3643;52.460;13.322;2023-10-31T10:11:47;1.20;;;1.20;;
7203;SDS011;3643;52.460;13.322;2023-10-31T10:14:15;2.33;;;1.30;;
7203;SDS011;3643;52.460;13.322;2023-10-31T10:16:44;2.07;;;1.70;;
7203;SDS011;3643;52.460;13.322;2023-10-31T10:19:15;2.50;;;1.70;;
7203;SDS011;3643;52.460;13.322;2023-10-31T10:21:47;2.20;;;1.83;;
7203;SDS011;3643;52.460;13.322;2023-10-31T10:24:16;1.87;;;1.70;;
7203;SDS011;3643;52.460;13.322;2023-10-31T10:26:45;2.27;;;1.40;;
7203;SDS011;3643;52.460;13.322;2023-10-31T10:29:13;7.70;;;5.97;;
7203;SDS011;3643;52.460;13.322;2023-10-31T10:31:41;2.63;;;1.97;;
7203;SDS011;3643;52.460;13.322;2023-10-31T10:34:12;1.80;;;1.70;;
7203;SDS011;3643;52.460;13.322;2023-10-31T10:36:43;2.30;;;1.33;;
7203;SDS011;3643;52.460;13.322;2023-10-31T10:39:17;9.27;;;6.73;;
7203;SDS011;3643;52.460;13.322;2023-10-31T10:41:51;4.00;;;3.03;;
7203;SDS011;3643;52.460;13.322;2023-10-31T10:44:23;2.83;;;1.70;;
7203;SDS011;3643;52.460;13.322;2023-10-31T10:46:58;3.07;;;2.10;;
7203;SDS011;3643;52.460;13.322;2023-10-31T10:49:29;6.20;;;2.67;;
7203;SDS011;3643;52.460;13.322;2023-10-31T10:52:06;1.50;;;1.30;;
7203;SDS011;3643;52.460;13.322;2023-10-31T10:54:43;4.07;;;1.70;;
7203;SDS011;3643;52.460;13.322;2023-10-31T10:57:14;1.53;;;1.40;;
7203;SDS011;3643;52.460;13.322;2023-10-31T10:59:48;1.67;;;1.57;;
7203;SDS011;3643;52.460;13.322;2023-10-31T11:02:19;2.03;;;1.70;;
7203;SDS011;3643;52.460;13.322;2023-10-31T11:04:48;1.63;;;1.53;;
7203;SDS011;3643;52.460;13.322;2023-10-31T11:07:18;1.90;;;1.80;;
7203;SDS011;3643;52.460;13.322;2023-10-31T11:09:46;1.83;;;1.73;;
7203;SDS011;3643;52.460;13.322;2023-10-31T11:12:15;2.57;;;1.80;;
7203;SDS011;3643;52.460;13.322;2023-10-31T11:14:44;2.43;;;1.60;;
7203;SDS011;3643;52.460;13.322;2023-10-31T11:17:14;1.90;;;1.60;;
7203;SDS011;3643;52.460;13.322;2023-10-31T11:19:50;1.93;;;1.53;;
7203;SDS011;3643;52.460;13.322;2023-10-31T11:22:22;2.83;;;1.83;;
7203;SDS011;3643;52.460;13.322;2023-10-31T11:24:51;2.10;;;1.40;;
7203;SDS011;3643;52.460;13.322;2023-10-31T11:27:19;1.80;;;1.70;;
7203;SDS011;3643;52.460;13.322;2023-10-31T11:29:47;2.70;;;1.83;;
7203;SDS011;3643;52.460;13.322;2023-10-31T11:32:16;3.00;;;1.80;;
7203;SDS011;3643;52.460;13.322;2023-10-31T11:34:44;2.07;;;1.77;;
7203;SDS011;3643;52.460;13.322;2023-10-31T11:37:23;1.40;;;1.30;;
7203;SDS011;3643;52.460;13.322;2023-10-31T11:40:14;2.90;;;1.70;;
7203;SDS011;3643;52.460;13.322;2023-10-31T11:42:44;1.50;;;1.40;;
7203;SDS011;3643;52.460;13.322;2023-10-31T11:45:25;1.87;;;1.43;;
7203;SDS011;3643;52.460;13.322;2023-10-31T11:47:54;1.70;;;1.50;;
7203;SDS011;3643;52.460;13.322;2023-10-31T11:50:23;1.50;;;1.40;;
7203;SDS011;3643;52.460;13.322;2023-10-31T11:53:00;1.20;;;1.20;;
7203;SDS011;3643;52.460;13.322;2023-10-31T11:55:31;2.13;;;1.33;;
7203;SDS011;3643;52.460;13.322;2023-10-31T11:58:16;2.60;;;1.30;;
7203;SDS011;3643;52.460;13.322;2023-10-31T12:00:45;1.37;;;1.30;;
7203;SDS011;3643;52.460;13.322;2023-10-31T12:03:15;1.20;;;1.10;;
7203;SDS011;3643;52.460;13.322;2023-10-31T12:05:50;1.00;;;1.00;;
7203;SDS011;3643;52.460;13.322;2023-10-31T12:08:28;1.27;;;0.90;;
7203;SDS011;3643;52.460;13.322;2023-10-31T12:11:07;1.13;;;1.10;;
7203;SDS011;3643;52.460;13.322;2023-10-31T12:13:36;0.93;;;0.93;;
7203;SDS011;3643;52.460;13.322;2023-10-31T12:16:06;10.83;;;1.20;;
7203;SDS011;3643;52.460;13.322;2023-10-31T12:18:35;1.23;;;1.07;;
7203;SDS011;3643;52.460;13.322;2023-10-31T12:21:05;1.10;;;1.10;;
7203;SDS011;3643;52.460;13.322;2023-10-31T12:23:36;3.03;;;1.10;;
7203;SDS011;3643;52.460;13.322;2023-10-31T12:26:04;0.83;;;0.83;;
7203;SDS011;3643;52.460;13.322;2023-10-31T12:28:32;0.80;;;0.80;;
7203;SDS011;3643;52.460;13.322;2023-10-31T12:31:00;1.30;;;1.00;;
7203;SDS011;3643;52.460;13.322;2023-10-31T12:33:30;0.80;;;0.80;;
7203;SDS011;3643;52.460;13.322;2023-10-31T12:35:58;1.00;;;0.80;;
7203;SDS011;3643;52.460;13.322;2023-10-31T12:38:27;0.93;;;0.80;;
7203;SDS011;3643;52.460;13.322;2023-10-31T12:40:57;1.10;;;1.00;;
7203;SDS011;3643;52.460;13.322;2023-10-31T12:43:26;0.80;;;0.80;;
7203;SDS011;3643;52.460;13.322;2023-10-31T12:45:55;1.67;;;1.00;;
7203;SDS011;3643;52.460;13.322;2023-10-31T12:48:23;0.80;;;0.80;;
7203;SDS011;3643;52.460;13.322;2023-10-31T12:51:05;0.80;;;0.80;;
7203;SDS011;3643;52.460;13.322;2023-10-31T12:53:35;0.60;;;0.60;;
7203;SDS011;3643;52.460;13.322;2023-10-31T12:56:05;1.17;;;0.77;;
7203;SDS011;3643;52.460;13.322;2023-10-31T12:58:33;1.80;;;0.90;;
7203;SDS011;3643;52.460;13.322;2023-10-31T13:01:06;0.80;;;0.80;;
7203;SDS011;3643;52.460;13.322;2023-10-31T13:03:48;0.67;;;0.67;;
7203;SDS011;3643;52.460;13.322;2023-10-31T13:06:17;1.07;;;0.90;;
7203;SDS011;3643;52.460;13.322;2023-10-31T13:08:45;1.87;;;1.53;;
7203;SDS011;3643;52.460;13.322;2023-10-31T13:11:15;0.90;;;0.90;;
7203;SDS011;3643;52.460;13.322;2023-10-31T13:13:43;0.97;;;0.97;;
7203;SDS011;3643;52.460;13.322;2023-10-31T13:16:11;0.90;;;0.90;;
7203;SDS011;3643;52.460;13.322;2023-10-31T13:18:39;1.00;;;0.87;;
7203;SDS011;3643;52.460;13.322;2023-10-31T13:21:07;1.17;;;0.90;;
7203;SDS011;3643;52.460;13.322;2023-10-31T13:23:37;2.87;;;1.20;;
7203;SDS011;3643;52.460;13.322;2023-10-31T13:26:05;0.80;;;0.80;;
7203;SDS011;3643;52.460;13.322;2023-10-31T13:28:34;1.83;;;1.50;;
7203;SDS011;3643;52.460;13.322;2023-10-31T13:31:05;1.10;;;1.00;;
7203;SDS011;3643;52.460;13.322;2023-10-31T13:33:33;1.30;;;1.20;;
7203;SDS011;3643;52.460;13.322;2023-10-31T13:36:01;0.80;;;0.80;;
7203;SDS011;3643;52.460;13.322;2023-10-31T13:38:30;1.80;;;0.83;;
7203;SDS011;3643;52.460;13.322;2023-10-31T13:40:58;2.50;;;0.87;;
7203;SDS011;3643;52.460;13.322;2023-10-31T13:43:27;1.10;;;1.10;;
7203;SDS011;3643;52.460;13.322;2023-10-31T13:45:56;1.27;;;0.90;;
7203;SDS011;3643;52.460;13.322;2023-10-31T13:48:24;1.63;;;0.90;;
7203;SDS011;3643;52.460;13.322;2023-10-31T13:50:53;0.80;;;0.80;;
7203;SDS011;3643;52.460;13.322;2023-10-31T13:53:21;2.33;;;1.93;;
7203;SDS011;3643;52.460;13.322;2023-10-31T13:55:49;1.43;;;1.10;;
7203;SDS011;3643;52.460;13.322;2023-10-31T13:58:17;0.80;;;0.80;;
7203;SDS011;3643;52.460;13.322;2023-10-31T14:00:46;0.77;;;0.77;;
7203;SDS011;3643;52.460;13.322;2023-10-31T14:03:16;1.47;;;1.00;;
7203;SDS011;3643;52.460;13.322;2023-10-31T14:05:44;0.80;;;0.80;;
7203;SDS011;3643;52.460;13.322;2023-10-31T14:08:12;1.70;;;0.90;;
7203;SDS011;3643;52.460;13.322;2023-10-31T14:10:40;1.87;;;1.77;;
7203;SDS011;3643;52.460;13.322;2023-10-31T14:13:11;3.07;;;0.90;;
7203;SDS011;3643;52.460;13.322;2023-10-31T14:15:40;0.90;;;0.90;;
7203;SDS011;3643;52.460;13.322;2023-10-31T14:18:08;1.37;;;1.27;;
7203;SDS011;3643;52.460;13.322;2023-10-31T14:20:38;0.80;;;0.80;;
7203;SDS011;3643;52.460;13.322;2023-10-31T14:23:07;0.80;;;0.80;;
7203;SDS011;3643;52.460;13.322;2023-10-31T14:25:35;1.00;;;1.00;;
7203;SDS011;3643;52.460;13.322;2023-10-31T14:28:05;1.00;;;1.00;;
7203;SDS011;3643;52.460;13.322;2023-10-31T14:30:34;1.10;;;1.00;;
7203;SDS011;3643;52.460;13.322;2023-10-31T14:33:02;1.30;;;1.10;;
7203;SDS011;3643;52.460;13.322;2023-10-31T14:35:30;0.93;;;0.93;;
7203;SDS011;3643;52.460;13.322;2023-10-31T14:38:00;4.23;;;3.67;;
7203;SDS011;3643;52.460;13.322;2023-10-31T14:40:28;1.37;;;1.27;;
7203;SDS011;3643;52.460;13.322;2023-10-31T14:42:56;1.03;;;0.93;;
7203;SDS011;3643;52.460;13.322;2023-10-31T14:45:24;1.03;;;1.00;;
7203;SDS011;3643;52.460;13.322;2023-10-31T14:47:52;1.23;;;1.00;;
7203;SDS011;3643;52.460;13.322;2023-10-31T14:50:21;0.80;;;0.80;;
7203;SDS011;3643;52.460;13.322;2023-10-31T14:52:49;5.20;;;1.00;;
7203;SDS011;3643;52.460;13.322;2023-10-31T14:55:18;1.10;;;1.00;;
7203;SDS011;3643;52.460;13.322;2023-10-31T14:57:46;0.90;;;0.90;;
7203;SDS011;3643;52.460;13.322;2023-10-31T15:00:14;0.90;;;0.90;;
7203;SDS011;3643;52.460;13.322;2023-10-31T15:02:43;1.13;;;1.10;;
7203;SDS011;3643;52.460;13.322;2023-10-31T15:05:11;2.60;;;1.10;;
7203;SDS011;3643;52.460;13.322;2023-10-31T15:07:39;1.07;;;1.07;;
7203;SDS011;3643;52.460;13.322;2023-10-31T15:10:07;1.70;;;0.90;;